sensor_id;sensor_type;location;lat;lon;timestamp;P1;durP1;ratioP1;P2;durP2;ratioP2
35977;SDS011;22056;0.000;0.000;2023-04-06T00:01:58;1.75;;;0.68;;
35977;SDS011;22056;0.000;0.000;2023-04-06T00:04:24;2.22;;;0.60;;
35977;SDS011;22056;0.000;0.000;2023-04-06T00:06:50;1.15;;;0.60;;
35977;SDS011;22056;0.000;0.000;2023-04-06T00:09:17;1.77;;;0.63;;
35977;SDS011;22056;0.000;0.000;2023-04-06T00:11:43;1.83;;;0.63;;
35977;SDS011;22056;0.000;0.000;2023-04-06T00:14:09;1.58;;;0.70;;
35977;SDS011;22056;0.000;0.000;2023-04-06T00:16:35;1.35;;;0.50;;
35977;SDS011;22056;0.000;0.000;2023-04-06T00:19:01;1.48;;;0.60;;
35977;SDS011;22056;0.000;0.000;2023-04-06T00:21:27;1.65;;;0.60;;
35977;SDS011;22056;0.000;0.000;2023-04-06T00:23:54;0.73;;;0.60;;
35977;SDS011;22056;0.000;0.000;2023-04-06T00:26:20;1.95;;;0.70;;
35977;SDS011;22056;0.000;0.000;2023-04-06T00:28:46;1.02;;;0.65;;
35977;SDS011;22056;0.000;0.000;2023-04-06T00:31:12;1.45;;;0.50;;
35977;SDS011;22056;0.000;0.000;2023-04-06T00:33:38;1.80;;;0.73;;
35977;SDS011;22056;0.000;0.000;2023-04-06T00:36:04;1.58;;;0.73;;
35977;SDS011;22056;0.000;0.000;2023-04-06T00:38:31;1.35;;;0.50;;
35977;SDS011;22056;0.000;0.000;2023-04-06T00:40:57;0.90;;;0.50;;
35977;SDS011;22056;0.000;0.000;2023-04-06T00:43:23;3.45;;;0.60;;
35977;SDS011;22056;0.000;0.000;2023-04-06T00:45:49;3.53;;;0.80;;
35977;SDS011;22056;0.000;0.000;2023-04-06T00:48:15;1.15;;;0.50;;
35977;SDS011;22056;0.000;0.000;2023-04-06T00:50:42;1.45;;;0.70;;
35977;SDS011;22056;0.000;0.000;2023-04-06T00:53:08;1.10;;;0.45;;
35977;SDS011;22056;0.000;0.000;2023-04-06T00:55:34;0.85;;;0.60;;
35977;SDS011;22056;0.000;0.000;2023-04-06T00:58:01;1.13;;;0.55;;
35977;SDS011;22056;0.000;0.000;2023-04-06T01:00:28;1.13;;;0.57;;
35977;SDS011;22056;0.000;0.000;2023-04-06T01:02:55;0.60;;;0.45;;
35977;SDS011;22056;0.000;0.000;2023-04-06T01:05:21;1.35;;;0.50;;
35977;SDS011;22056;0.000;0.000;2023-04-06T01:07:47;1.05;;;0.60;;
35977;SDS011;22056;0.000;0.000;2023-04-06T01:10:23;1.25;;;0.47;;
35977;SDS011;22056;0.000;0.000;2023-04-06T01:12:50;0.93;;;0.40;;
35977;SDS011;22056;0.000;0.000;2023-04-06T01:15:16;0.75;;;0.50;;
35977;SDS011;22056;0.000;0.000;2023-04-06T01:17:42;0.98;;;0.50;;
35977;SDS011;22056;0.000;0.000;2023-04-06T01:20:08;2.05;;;0.63;;
35977;SDS011;22056;0.000;0.000;2023-04-06T01:22:34;0.70;;;0.57;;
35977;SDS011;22056;0.000;0.000;2023-04-06T01:25:00;1.02;;;0.68;;
35977;SDS011;22056;0.000;0.000;2023-04-06T01:27:27;1.85;;;0.60;;
35977;SDS011;22056;0.000;0.000;2023-04-06T01:29:54;2.22;;;0.50;;
35977;SDS011;22056;0.000;0.000;2023-04-06T01:32:21;1.15;;;0.50;;
35977;SDS011;22056;0.000;0.000;2023-04-06T01:34:47;1.30;;;0.50;;
35977;SDS011;22056;0.000;0.000;2023-04-06T01:37:13;0.60;;;0.47;;
35977;SDS011;22056;0.000;0.000;2023-04-06T01:39:39;1.30;;;0.60;;
35977;SDS011;22056;0.000;0.000;2023-04-06T01:42:05;1.13;;;0.60;;
35977;SDS011;22056;0.000;0.000;2023-04-06T01:44:31;0.93;;;0.55;;
35977;SDS011;22056;0.000;0.000;2023-04-06T01:46:57;0.93;;;0.57;;
35977;SDS011;22056;0.000;0.000;2023-04-06T01:49:24;0.63;;;0.50;;
35977;SDS011;22056;0.000;0.000;2023-04-06T01:51:50;0.50;;;0.40;;
35977;SDS011;22056;0.000;0.000;2023-04-06T01:54:19;0.88;;;0.50;;
35977;SDS011;22056;0.000;0.000;2023-04-06T01:56:45;1.20;;;0.50;;
35977;SDS011;22056;0.000;0.000;2023-04-06T01:59:11;2.60;;;0.60;;
35977;SDS011;22056;0.000;0.000;2023-04-06T02:01:37;1.10;;;0.60;;
35977;SDS011;22056;0.000;0.000;2023-04-06T02:04:03;0.70;;;0.43;;
35977;SDS011;22056;0.000;0.000;2023-04-06T02:06:30;2.50;;;0.50;;
35977;SDS011;22056;0.000;0.000;2023-04-06T02:08:56;0.82;;;0.43;;
35977;SDS011;22056;0.000;0.000;2023-04-06T02:11:22;0.95;;;0.47;;
35977;SDS011;22056;0.000;0.000;2023-04-06T02:13:48;1.67;;;0.90;;
35977;SDS011;22056;0.000;0.000;2023-04-06T02:16:14;0.30;;;0.30;;
35977;SDS011;22056;0.000;0.000;2023-04-06T02:18:41;1.08;;;0.57;;
35977;SDS011;22056;0.000;0.000;2023-04-06T02:21:07;0.40;;;0.40;;
35977;SDS011;22056;0.000;0.000;2023-04-06T02:23:33;1.05;;;0.50;;
35977;SDS011;22056;0.000;0.000;2023-04-06T02:25:59;0.80;;;0.55;;
35977;SDS011;22056;0.000;0.000;2023-04-06T02:28:25;0.85;;;0.50;;
35977;SDS011;22056;0.000;0.000;2023-04-06T02:30:51;0.57;;;0.40;;
35977;SDS011;22056;0.000;0.000;2023-04-06T02:33:17;0.88;;;0.68;;
35977;SDS011;22056;0.000;0.000;2023-04-06T02:35:44;0.60;;;0.50;;
35977;SDS011;22056;0.000;0.000;2023-04-06T02:38:10;0.82;;;0.40;;
35977;SDS011;22056;0.000;0.000;2023-04-06T02:40:37;0.65;;;0.40;;
35977;SDS011;22056;0.000;0.000;2023-04-06T02:43:03;0.88;;;0.57;;
35977;SDS011;22056;0.000;0.000;2023-04-06T02:45:29;0.40;;;0.40;;
35977;SDS011;22056;0.000;0.000;2023-04-06T02:47:55;0.73;;;0.60;;
35977;SDS011;22056;0.000;0.000;2023-04-06T02:50:21;0.40;;;0.40;;
35977;SDS011;22056;0.000;0.000;2023-04-06T02:52:47;0.68;;;0.68;;
35977;SDS011;22056;0.000;0.000;2023-04-06T02:55:13;0.50;;;0.40;;
35977;SDS011;22056;0.000;0.000;2023-04-06T02:57:40;0.70;;;0.50;;
35977;SDS011;22056;0.000;0.000;2023-04-06T03:00:06;0.40;;;0.40;;
35977;SDS011;22056;0.000;0.000;2023-04-06T03:02:32;0.60;;;0.50;;
35977;SDS011;22056;0.000;0.000;2023-04-06T03:04:58;0.40;;;0.35;;
35977;SDS011;22056;0.000;0.000;2023-04-06T03:07:25;0.63;;;0.60;;
35977;SDS011;22056;0.000;0.000;2023-04-06T03:09:51;0.55;;;0.40;;
35977;SDS011;22056;0.000;0.000;2023-04-06T03:12:17;0.65;;;0.40;;
35977;SDS011;22056;0.000;0.000;2023-04-06T03:14:43;0.60;;;0.40;;
35977;SDS011;22056;0.000;0.000;2023-04-06T03:17:09;0.43;;;0.43;;
35977;SDS011;22056;0.000;0.000;2023-04-06T03:19:35;0.60;;;0.50;;
35977;SDS011;22056;0.000;0.000;2023-04-06T03:22:01;0.57;;;0.40;;
35977;SDS011;22056;0.000;0.000;2023-04-06T03:24:28;0.55;;;0.45;;
35977;SDS011;22056;0.000;0.000;2023-04-06T03:26:54;0.70;;;0.50;;
35977;SDS011;22056;0.000;0.000;2023-04-06T03:29:20;0.35;;;0.35;;
35977;SDS011;22056;0.000;0.000;2023-04-06T03:31:46;0.63;;;0.40;;
35977;SDS011;22056;0.000;0.000;2023-04-06T03:34:12;1.35;;;0.40;;
35977;SDS011;22056;0.000;0.000;2023-04-06T03:36:38;0.90;;;0.55;;
35977;SDS011;22056;0.000;0.000;2023-04-06T03:39:04;0.32;;;0.32;;
35977;SDS011;22056;0.000;0.000;2023-04-06T03:41:30;0.75;;;0.40;;
35977;SDS011;22056;0.000;0.000;2023-04-06T03:43:57;0.43;;;0.30;;
35977;SDS011;22056;0.000;0.000;2023-04-06T03:46:23;0.43;;;0.43;;
35977;SDS011;22056;0.000;0.000;2023-04-06T03:48:49;1.38;;;0.40;;
35977;SDS011;22056;0.000;0.000;2023-04-06T03:51:15;0.32;;;0.32;;
35977;SDS011;22056;0.000;0.000;2023-04-06T03:53:41;0.88;;;0.60;;
35977;SDS011;22056;0.000;0.000;2023-04-06T03:56:08;0.40;;;0.40;;
35977;SDS011;22056;0.000;0.000;2023-04-06T03:58:34;0.93;;;0.40;;
35977;SDS011;22056;0.000;0.000;2023-04-06T04:03:43;0.73;;;0.47;;
35977;SDS011;22056;0.000;0.000;2023-04-06T04:06:09;0.45;;;0.40;;
35977;SDS011;22056;0.000;0.000;2023-04-06T04:08:35;0.50;;;0.40;;
35977;SDS011;22056;0.000;0.000;2023-04-06T04:11:01;0.30;;;0.30;;
35977;SDS011;22056;0.000;0.000;2023-04-06T04:13:27;0.60;;;0.30;;
35977;SDS011;22056;0.000;0.000;2023-04-06T04:15:53;0.85;;;0.40;;
35977;SDS011;22056;0.000;0.000;2023-04-06T04:18:19;0.63;;;0.55;;
35977;SDS011;22056;0.000;0.000;2023-04-06T04:20:46;0.20;;;0.20;;
35977;SDS011;22056;0.000;0.000;2023-04-06T04:23:12;0.50;;;0.40;;
35977;SDS011;22056;0.000;0.000;2023-04-06T04:25:38;1.13;;;0.45;;
35977;SDS011;22056;0.000;0.000;2023-04-06T04:28:04;0.73;;;0.40;;
35977;SDS011;22056;0.000;0.000;2023-04-06T04:30:31;0.77;;;0.50;;
35977;SDS011;22056;0.000;0.000;2023-04-06T04:32:57;1.05;;;0.50;;
35977;SDS011;22056;0.000;0.000;2023-04-06T04:35:23;2.13;;;0.50;;
35977;SDS011;22056;0.000;0.000;2023-04-06T04:37:49;0.40;;;0.40;;
35977;SDS011;22056;0.000;0.000;2023-04-06T04:40:15;1.52;;;0.70;;
35977;SDS011;22056;0.000;0.000;2023-04-06T04:42:42;0.57;;;0.40;;
35977;SDS011;22056;0.000;0.000;2023-04-06T04:45:08;2.50;;;0.63;;
35977;SDS011;22056;0.000;0.000;2023-04-06T04:47:34;0.88;;;0.40;;
35977;SDS011;22056;0.000;0.000;2023-04-06T04:50:00;1.08;;;0.60;;
35977;SDS011;22056;0.000;0.000;2023-04-06T04:52:26;1.95;;;0.50;;
35977;SDS011;22056;0.000;0.000;2023-04-06T04:54:52;0.75;;;0.40;;
35977;SDS011;22056;0.000;0.000;2023-04-06T04:57:19;1.75;;;0.50;;
35977;SDS011;22056;0.000;0.000;2023-04-06T04:59:45;1.90;;;0.60;;
35977;SDS011;22056;0.000;0.000;2023-04-06T05:02:11;1.17;;;0.50;;
35977;SDS011;22056;0.000;0.000;2023-04-06T05:04:37;2.15;;;0.45;;
35977;SDS011;22056;0.000;0.000;2023-04-06T05:07:07;2.05;;;0.70;;
35977;SDS011;22056;0.000;0.000;2023-04-06T05:09:33;1.40;;;0.60;;
35977;SDS011;22056;0.000;0.000;2023-04-06T05:11:59;3.97;;;0.70;;
35977;SDS011;22056;0.000;0.000;2023-04-06T05:14:28;1.95;;;0.50;;
35977;SDS011;22056;0.000;0.000;2023-04-06T05:16:54;1.35;;;0.40;;
35977;SDS011;22056;0.000;0.000;2023-04-06T05:19:21;1.50;;;0.68;;
35977;SDS011;22056;0.000;0.000;2023-04-06T05:21:47;0.52;;;0.50;;
35977;SDS011;22056;0.000;0.000;2023-04-06T05:24:13;0.88;;;0.50;;
35977;SDS011;22056;0.000;0.000;2023-04-06T05:26:39;1.13;;;0.60;;
35977;SDS011;22056;0.000;0.000;2023-04-06T05:29:05;1.75;;;0.60;;
35977;SDS011;22056;0.000;0.000;2023-04-06T05:31:32;1.38;;;0.68;;
35977;SDS011;22056;0.000;0.000;2023-04-06T05:33:58;2.08;;;0.50;;
35977;SDS011;22056;0.000;0.000;2023-04-06T05:36:24;2.03;;;0.60;;
35977;SDS011;22056;0.000;0.000;2023-04-06T05:38:51;0.85;;;0.55;;
35977;SDS011;22056;0.000;0.000;2023-04-06T05:41:18;1.85;;;0.70;;
35977;SDS011;22056;0.000;0.000;2023-04-06T05:43:44;4.20;;;0.95;;
35977;SDS011;22056;0.000;0.000;2023-04-06T05:46:10;3.47;;;0.90;;
35977;SDS011;22056;0.000;0.000;2023-04-06T05:48:36;1.83;;;0.70;;
35977;SDS011;22056;0.000;0.000;2023-04-06T05:51:02;2.88;;;0.70;;
35977;SDS011;22056;0.000;0.000;2023-04-06T05:53:31;1.75;;;0.80;;
35977;SDS011;22056;0.000;0.000;2023-04-06T05:56:00;2.97;;;0.80;;
35977;SDS011;22056;0.000;0.000;2023-04-06T05:58:26;1.98;;;0.93;;
35977;SDS011;22056;0.000;0.000;2023-04-06T06:00:59;1.48;;;0.60;;
35977;SDS011;22056;0.000;0.000;2023-04-06T06:03:25;2.85;;;0.60;;
35977;SDS011;22056;0.000;0.000;2023-04-06T06:05:52;4.93;;;0.63;;
35977;SDS011;22056;0.000;0.000;2023-04-06T06:08:18;3.13;;;0.52;;
35977;SDS011;22056;0.000;0.000;2023-04-06T06:10:44;2.00;;;0.77;;
35977;SDS011;22056;0.000;0.000;2023-04-06T06:13:10;2.03;;;0.73;;
35977;SDS011;22056;0.000;0.000;2023-04-06T06:15:36;3.15;;;0.82;;
35977;SDS011;22056;0.000;0.000;2023-04-06T06:18:02;3.65;;;0.88;;
35977;SDS011;22056;0.000;0.000;2023-04-06T06:20:28;2.05;;;0.65;;
35977;SDS011;22056;0.000;0.000;2023-04-06T06:22:54;2.00;;;0.70;;
35977;SDS011;22056;0.000;0.000;2023-04-06T06:25:21;1.38;;;0.60;;
35977;SDS011;22056;0.000;0.000;2023-04-06T06:27:47;5.03;;;1.10;;
35977;SDS011;22056;0.000;0.000;2023-04-06T06:30:13;1.25;;;0.90;;
35977;SDS011;22056;0.000;0.000;2023-04-06T06:32:39;3.63;;;0.75;;
35977;SDS011;22056;0.000;0.000;2023-04-06T06:35:06;2.95;;;0.80;;
35977;SDS011;22056;0.000;0.000;2023-04-06T06:37:32;1.88;;;0.75;;
35977;SDS011;22056;0.000;0.000;2023-04-06T06:39:58;1.90;;;0.80;;
35977;SDS011;22056;0.000;0.000;2023-04-06T06:42:25;3.58;;;0.80;;
35977;SDS011;22056;0.000;0.000;2023-04-06T06:44:51;3.35;;;0.80;;
35977;SDS011;22056;0.000;0.000;2023-04-06T06:47:17;3.38;;;0.80;;
35977;SDS011;22056;0.000;0.000;2023-04-06T06:49:43;3.72;;;0.85;;
35977;SDS011;22056;0.000;0.000;2023-04-06T06:52:09;2.92;;;0.88;;
35977;SDS011;22056;0.000;0.000;2023-04-06T06:54:35;5.53;;;0.75;;
35977;SDS011;22056;0.000;0.000;2023-04-06T06:57:02;3.75;;;1.00;;
35977;SDS011;22056;0.000;0.000;2023-04-06T06:59:28;3.10;;;1.10;;
35977;SDS011;22056;0.000;0.000;2023-04-06T07:01:54;3.17;;;0.90;;
35977;SDS011;22056;0.000;0.000;2023-04-06T07:04:20;3.97;;;0.88;;
35977;SDS011;22056;0.000;0.000;2023-04-06T07:06:46;4.72;;;0.70;;
35977;SDS011;22056;0.000;0.000;2023-04-06T07:09:12;2.22;;;0.82;;
35977;SDS011;22056;0.000;0.000;2023-04-06T07:11:38;4.72;;;1.08;;
35977;SDS011;22056;0.000;0.000;2023-04-06T07:14:07;3.55;;;0.98;;
35977;SDS011;22056;0.000;0.000;2023-04-06T07:16:33;3.63;;;1.00;;
35977;SDS011;22056;0.000;0.000;2023-04-06T07:18:59;5.03;;;1.02;;
35977;SDS011;22056;0.000;0.000;2023-04-06T07:21:26;2.45;;;0.90;;
35977;SDS011;22056;0.000;0.000;2023-04-06T07:23:52;4.13;;;0.77;;
35977;SDS011;22056;0.000;0.000;2023-04-06T07:26:18;3.38;;;0.88;;
35977;SDS011;22056;0.000;0.000;2023-04-06T07:28:45;2.15;;;1.10;;
35977;SDS011;22056;0.000;0.000;2023-04-06T07:31:11;3.67;;;1.42;;
35977;SDS011;22056;0.000;0.000;2023-04-06T07:33:37;4.35;;;0.82;;
35977;SDS011;22056;0.000;0.000;2023-04-06T07:36:03;4.13;;;1.17;;
35977;SDS011;22056;0.000;0.000;2023-04-06T07:38:30;3.47;;;1.10;;
35977;SDS011;22056;0.000;0.000;2023-04-06T07:40:56;3.38;;;1.02;;
35977;SDS011;22056;0.000;0.000;2023-04-06T07:43:22;2.83;;;0.90;;
35977;SDS011;22056;0.000;0.000;2023-04-06T07:45:48;1.98;;;1.13;;
35977;SDS011;22056;0.000;0.000;2023-04-06T07:48:15;2.00;;;0.70;;
35977;SDS011;22056;0.000;0.000;2023-04-06T07:50:41;1.52;;;0.88;;
35977;SDS011;22056;0.000;0.000;2023-04-06T07:53:08;3.25;;;0.98;;
35977;SDS011;22056;0.000;0.000;2023-04-06T07:55:34;2.25;;;1.05;;
35977;SDS011;22056;0.000;0.000;2023-04-06T07:58:00;4.30;;;1.17;;
35977;SDS011;22056;0.000;0.000;2023-04-06T08:00:26;3.53;;;1.23;;
35977;SDS011;22056;0.000;0.000;2023-04-06T08:02:54;4.13;;;1.40;;
35977;SDS011;22056;0.000;0.000;2023-04-06T08:05:20;4.57;;;1.20;;
35977;SDS011;22056;0.000;0.000;2023-04-06T08:07:46;4.47;;;1.00;;
35977;SDS011;22056;0.000;0.000;2023-04-06T08:10:12;2.42;;;1.10;;
35977;SDS011;22056;0.000;0.000;2023-04-06T08:12:38;2.75;;;0.90;;
35977;SDS011;22056;0.000;0.000;2023-04-06T08:15:05;3.00;;;0.90;;
35977;SDS011;22056;0.000;0.000;2023-04-06T08:17:31;4.10;;;1.27;;
35977;SDS011;22056;0.000;0.000;2023-04-06T08:19:58;3.90;;;1.23;;
35977;SDS011;22056;0.000;0.000;2023-04-06T08:22:24;3.17;;;1.08;;
35977;SDS011;22056;0.000;0.000;2023-04-06T08:24:51;2.97;;;1.25;;
35977;SDS011;22056;0.000;0.000;2023-04-06T08:27:17;3.10;;;0.90;;
35977;SDS011;22056;0.000;0.000;2023-04-06T08:29:43;5.65;;;1.08;;
35977;SDS011;22056;0.000;0.000;2023-04-06T08:32:09;3.75;;;1.10;;
35977;SDS011;22056;0.000;0.000;2023-04-06T08:34:35;2.92;;;0.95;;
35977;SDS011;22056;0.000;0.000;2023-04-06T08:37:01;4.05;;;1.20;;
35977;SDS011;22056;0.000;0.000;2023-04-06T08:39:28;2.30;;;0.70;;
35977;SDS011;22056;0.000;0.000;2023-04-06T08:41:55;3.30;;;1.23;;
35977;SDS011;22056;0.000;0.000;2023-04-06T08:44:22;4.25;;;1.13;;
35977;SDS011;22056;0.000;0.000;2023-04-06T08:46:49;3.30;;;1.20;;
35977;SDS011;22056;0.000;0.000;2023-04-06T08:49:16;2.45;;;1.33;;
35977;SDS011;22056;0.000;0.000;2023-04-06T08:51:42;2.67;;;1.25;;
35977;SDS011;22056;0.000;0.000;2023-04-06T08:54:08;2.72;;;1.17;;
35977;SDS011;22056;0.000;0.000;2023-04-06T08:56:37;2.60;;;0.80;;
35977;SDS011;22056;0.000;0.000;2023-04-06T08:59:03;4.75;;;1.00;;
35977;SDS011;22056;0.000;0.000;2023-04-06T09:01:29;2.95;;;1.15;;
35977;SDS011;22056;0.000;0.000;2023-04-06T09:03:57;3.15;;;0.93;;
35977;SDS011;22056;0.000;0.000;2023-04-06T09:06:24;6.13;;;1.35;;
35977;SDS011;22056;0.000;0.000;2023-04-06T09:08:52;2.50;;;0.90;;
35977;SDS011;22056;0.000;0.000;2023-04-06T09:11:18;5.57;;;1.27;;
35977;SDS011;22056;0.000;0.000;2023-04-06T09:13:45;2.33;;;0.70;;
35977;SDS011;22056;0.000;0.000;2023-04-06T09:16:12;3.42;;;1.15;;
35977;SDS011;22056;0.000;0.000;2023-04-06T09:18:38;1.92;;;0.90;;
35977;SDS011;22056;0.000;0.000;2023-04-06T09:21:05;4.10;;;1.15;;
35977;SDS011;22056;0.000;0.000;2023-04-06T09:23:32;2.65;;;1.13;;
35977;SDS011;22056;0.000;0.000;2023-04-06T09:28:43;3.95;;;1.05;;
35977;SDS011;22056;0.000;0.000;2023-04-06T09:31:10;4.75;;;1.00;;
35977;SDS011;22056;0.000;0.000;2023-04-06T09:33:37;5.30;;;1.17;;
35977;SDS011;22056;0.000;0.000;2023-04-06T09:36:05;2.40;;;1.00;;
35977;SDS011;22056;0.000;0.000;2023-04-06T09:38:32;4.45;;;1.20;;
35977;SDS011;22056;0.000;0.000;2023-04-06T09:40:58;5.32;;;1.00;;
35977;SDS011;22056;0.000;0.000;2023-04-06T09:43:27;2.90;;;1.10;;
35977;SDS011;22056;0.000;0.000;2023-04-06T09:45:54;2.85;;;1.10;;
35977;SDS011;22056;0.000;0.000;2023-04-06T09:48:21;3.92;;;1.02;;
35977;SDS011;22056;0.000;0.000;2023-04-06T09:50:49;3.03;;;0.90;;
35977;SDS011;22056;0.000;0.000;2023-04-06T09:53:17;1.63;;;0.90;;
35977;SDS011;22056;0.000;0.000;2023-04-06T09:55:43;4.32;;;1.17;;
35977;SDS011;22056;0.000;0.000;2023-04-06T09:58:16;3.15;;;0.85;;
35977;SDS011;22056;0.000;0.000;2023-04-06T10:00:53;4.55;;;0.75;;
35977;SDS011;22056;0.000;0.000;2023-04-06T10:03:36;5.13;;;1.20;;
35977;SDS011;22056;0.000;0.000;2023-04-06T10:06:05;4.25;;;1.08;;
35977;SDS011;22056;0.000;0.000;2023-04-06T10:08:32;4.78;;;0.77;;
35977;SDS011;22056;0.000;0.000;2023-04-06T10:11:00;3.45;;;1.02;;
35977;SDS011;22056;0.000;0.000;2023-04-06T10:13:27;3.08;;;0.90;;
35977;SDS011;22056;0.000;0.000;2023-04-06T10:15:54;3.22;;;1.20;;
35977;SDS011;22056;0.000;0.000;2023-04-06T10:18:20;1.20;;;1.00;;
35977;SDS011;22056;0.000;0.000;2023-04-06T10:20:48;2.13;;;1.00;;
35977;SDS011;22056;0.000;0.000;2023-04-06T10:23:19;2.90;;;0.82;;
35977;SDS011;22056;0.000;0.000;2023-04-06T10:25:55;4.47;;;1.02;;
35977;SDS011;22056;0.000;0.000;2023-04-06T10:28:22;3.92;;;0.82;;
35977;SDS011;22056;0.000;0.000;2023-04-06T10:30:49;6.32;;;1.38;;
35977;SDS011;22056;0.000;0.000;2023-04-06T10:33:19;4.25;;;1.08;;
35977;SDS011;22056;0.000;0.000;2023-04-06T10:35:45;3.30;;;1.13;;
35977;SDS011;22056;0.000;0.000;2023-04-06T10:38:12;4.18;;;1.27;;
35977;SDS011;22056;0.000;0.000;2023-04-06T10:40:45;6.35;;;1.40;;
35977;SDS011;22056;0.000;0.000;2023-04-06T10:43:13;4.32;;;0.75;;
35977;SDS011;22056;0.000;0.000;2023-04-06T10:45:40;2.67;;;1.10;;
35977;SDS011;22056;0.000;0.000;2023-04-06T10:48:14;4.78;;;1.42;;
35977;SDS011;22056;0.000;0.000;2023-04-06T10:50:41;2.38;;;1.00;;
35977;SDS011;22056;0.000;0.000;2023-04-06T10:53:07;3.80;;;1.00;;
35977;SDS011;22056;0.000;0.000;2023-04-06T10:55:34;3.10;;;1.08;;
35977;SDS011;22056;0.000;0.000;2023-04-06T10:58:00;4.43;;;1.25;;
35977;SDS011;22056;0.000;0.000;2023-04-06T11:00:26;4.25;;;0.90;;
35977;SDS011;22056;0.000;0.000;2023-04-06T11:02:58;1.90;;;0.88;;
35977;SDS011;22056;0.000;0.000;2023-04-06T11:07:51;2.28;;;1.10;;
35977;SDS011;22056;0.000;0.000;2023-04-06T11:10:20;1.85;;;0.80;;
35977;SDS011;22056;0.000;0.000;2023-04-06T11:12:52;5.05;;;1.10;;
35977;SDS011;22056;0.000;0.000;2023-04-06T11:15:18;2.03;;;0.93;;
35977;SDS011;22056;0.000;0.000;2023-04-06T11:17:44;3.35;;;1.15;;
35977;SDS011;22056;0.000;0.000;2023-04-06T11:20:11;4.65;;;1.00;;
35977;SDS011;22056;0.000;0.000;2023-04-06T11:22:50;2.60;;;1.25;;
35977;SDS011;22056;0.000;0.000;2023-04-06T11:25:17;2.60;;;0.82;;
35977;SDS011;22056;0.000;0.000;2023-04-06T11:27:43;4.55;;;0.80;;
35977;SDS011;22056;0.000;0.000;2023-04-06T11:30:10;5.40;;;1.13;;
35977;SDS011;22056;0.000;0.000;2023-04-06T11:32:44;3.72;;;1.10;;
35977;SDS011;22056;0.000;0.000;2023-04-06T11:35:20;3.47;;;1.10;;
35977;SDS011;22056;0.000;0.000;2023-04-06T11:37:48;3.00;;;1.05;;
35977;SDS011;22056;0.000;0.000;2023-04-06T11:40:14;3.22;;;0.85;;
35977;SDS011;22056;0.000;0.000;2023-04-06T11:42:41;4.15;;;1.30;;
35977;SDS011;22056;0.000;0.000;2023-04-06T11:45:07;2.70;;;0.70;;
35977;SDS011;22056;0.000;0.000;2023-04-06T11:47:34;1.77;;;0.77;;
35977;SDS011;22056;0.000;0.000;2023-04-06T11:50:07;2.40;;;0.88;;
35977;SDS011;22056;0.000;0.000;2023-04-06T11:52:34;4.25;;;0.70;;
35977;SDS011;22056;0.000;0.000;2023-04-06T11:55:09;2.70;;;0.82;;
35977;SDS011;22056;0.000;0.000;2023-04-06T11:57:36;2.20;;;0.88;;
35977;SDS011;22056;0.000;0.000;2023-04-06T12:00:02;2.13;;;0.80;;
35977;SDS011;22056;0.000;0.000;2023-04-06T12:02:29;2.97;;;0.82;;
35977;SDS011;22056;0.000;0.000;2023-04-06T12:04:57;3.95;;;1.08;;
35977;SDS011;22056;0.000;0.000;2023-04-06T12:07:23;6.70;;;0.77;;
35977;SDS011;22056;0.000;0.000;2023-04-06T12:09:49;1.63;;;0.73;;
35977;SDS011;22056;0.000;0.000;2023-04-06T12:12:15;4.93;;;0.80;;
35977;SDS011;22056;0.000;0.000;2023-04-06T12:14:41;2.90;;;0.75;;
35977;SDS011;22056;0.000;0.000;2023-04-06T12:17:07;2.65;;;1.08;;
35977;SDS011;22056;0.000;0.000;2023-04-06T12:19:33;2.83;;;0.93;;
35977;SDS011;22056;0.000;0.000;2023-04-06T12:22:00;3.85;;;0.95;;
35977;SDS011;22056;0.000;0.000;2023-04-06T12:24:27;3.15;;;1.10;;
35977;SDS011;22056;0.000;0.000;2023-04-06T12:26:53;2.35;;;0.70;;
35977;SDS011;22056;0.000;0.000;2023-04-06T12:29:19;2.17;;;0.52;;
35977;SDS011;22056;0.000;0.000;2023-04-06T12:31:46;2.35;;;0.80;;
35977;SDS011;22056;0.000;0.000;2023-04-06T12:34:12;3.15;;;0.98;;
35977;SDS011;22056;0.000;0.000;2023-04-06T12:36:38;4.38;;;1.10;;
35977;SDS011;22056;0.000;0.000;2023-04-06T12:39:04;3.85;;;0.90;;
35977;SDS011;22056;0.000;0.000;2023-04-06T12:41:31;2.83;;;1.02;;
35977;SDS011;22056;0.000;0.000;2023-04-06T12:43:57;4.47;;;0.90;;
35977;SDS011;22056;0.000;0.000;2023-04-06T12:46:24;2.15;;;0.93;;
35977;SDS011;22056;0.000;0.000;2023-04-06T12:48:51;3.42;;;0.90;;
35977;SDS011;22056;0.000;0.000;2023-04-06T12:51:18;3.05;;;0.90;;
35977;SDS011;22056;0.000;0.000;2023-04-06T12:53:45;4.55;;;0.80;;
35977;SDS011;22056;0.000;0.000;2023-04-06T12:56:15;2.40;;;0.70;;
35977;SDS011;22056;0.000;0.000;2023-04-06T12:58:42;3.60;;;0.90;;
35977;SDS011;22056;0.000;0.000;2023-04-06T13:01:09;7.82;;;1.50;;
35977;SDS011;22056;0.000;0.000;2023-04-06T13:03:37;3.92;;;1.00;;
35977;SDS011;22056;0.000;0.000;2023-04-06T13:06:04;3.05;;;0.90;;
35977;SDS011;22056;0.000;0.000;2023-04-06T13:08:30;4.97;;;0.85;;
35977;SDS011;22056;0.000;0.000;2023-04-06T13:10:56;3.08;;;0.80;;
35977;SDS011;22056;0.000;0.000;2023-04-06T13:13:26;3.70;;;0.82;;
35977;SDS011;22056;0.000;0.000;2023-04-06T13:15:59;4.13;;;1.00;;
35977;SDS011;22056;0.000;0.000;2023-04-06T13:18:26;1.75;;;0.75;;
35977;SDS011;22056;0.000;0.000;2023-04-06T13:20:52;2.22;;;0.60;;
35977;SDS011;22056;0.000;0.000;2023-04-06T13:23:21;2.70;;;0.98;;
35977;SDS011;22056;0.000;0.000;2023-04-06T13:25:47;3.67;;;1.05;;
35977;SDS011;22056;0.000;0.000;2023-04-06T13:28:13;3.22;;;0.90;;
35977;SDS011;22056;0.000;0.000;2023-04-06T13:30:39;3.55;;;0.73;;
35977;SDS011;22056;0.000;0.000;2023-04-06T13:33:05;3.00;;;1.05;;
35977;SDS011;22056;0.000;0.000;2023-04-06T13:35:32;2.75;;;1.00;;
35977;SDS011;22056;0.000;0.000;2023-04-06T13:38:00;2.08;;;0.73;;
35977;SDS011;22056;0.000;0.000;2023-04-06T13:40:26;1.30;;;0.80;;
35977;SDS011;22056;0.000;0.000;2023-04-06T13:42:52;2.88;;;0.80;;
35977;SDS011;22056;0.000;0.000;2023-04-06T13:45:18;3.20;;;1.00;;
35977;SDS011;22056;0.000;0.000;2023-04-06T13:47:45;4.10;;;1.00;;
35977;SDS011;22056;0.000;0.000;2023-04-06T13:50:11;4.75;;;1.08;;
35977;SDS011;22056;0.000;0.000;2023-04-06T13:52:37;4.07;;;0.65;;
35977;SDS011;22056;0.000;0.000;2023-04-06T13:55:03;7.90;;;1.00;;
35977;SDS011;22056;0.000;0.000;2023-04-06T13:57:30;3.10;;;0.70;;
35977;SDS011;22056;0.000;0.000;2023-04-06T13:59:56;1.73;;;0.80;;
35977;SDS011;22056;0.000;0.000;2023-04-06T14:02:22;3.42;;;1.00;;
35977;SDS011;22056;0.000;0.000;2023-04-06T14:04:52;1.80;;;0.90;;
35977;SDS011;22056;0.000;0.000;2023-04-06T14:07:20;4.90;;;1.02;;
35977;SDS011;22056;0.000;0.000;2023-04-06T14:09:47;4.25;;;0.88;;
35977;SDS011;22056;0.000;0.000;2023-04-06T14:12:13;2.10;;;0.90;;
35977;SDS011;22056;0.000;0.000;2023-04-06T14:14:39;4.32;;;0.98;;
35977;SDS011;22056;0.000;0.000;2023-04-06T14:17:05;3.35;;;0.93;;
35977;SDS011;22056;0.000;0.000;2023-04-06T14:19:31;3.40;;;0.93;;
35977;SDS011;22056;0.000;0.000;2023-04-06T14:21:57;3.83;;;0.82;;
35977;SDS011;22056;0.000;0.000;2023-04-06T14:24:24;3.47;;;1.23;;
35977;SDS011;22056;0.000;0.000;2023-04-06T14:26:50;2.90;;;0.95;;
35977;SDS011;22056;0.000;0.000;2023-04-06T14:29:16;1.98;;;0.93;;
35977;SDS011;22056;0.000;0.000;2023-04-06T14:31:42;3.05;;;1.00;;
35977;SDS011;22056;0.000;0.000;2023-04-06T14:34:08;2.85;;;1.05;;
35977;SDS011;22056;0.000;0.000;2023-04-06T14:36:34;3.03;;;1.00;;
35977;SDS011;22056;0.000;0.000;2023-04-06T14:39:04;3.53;;;0.57;;
35977;SDS011;22056;0.000;0.000;2023-04-06T14:41:31;2.20;;;0.77;;
35977;SDS011;22056;0.000;0.000;2023-04-06T14:43:57;3.03;;;0.90;;
35977;SDS011;22056;0.000;0.000;2023-04-06T14:46:24;4.47;;;0.70;;
35977;SDS011;22056;0.000;0.000;2023-04-06T14:48:50;1.98;;;0.60;;
35977;SDS011;22056;0.000;0.000;2023-04-06T14:51:16;2.58;;;0.90;;
35977;SDS011;22056;0.000;0.000;2023-04-06T14:53:44;2.88;;;0.85;;
35977;SDS011;22056;0.000;0.000;2023-04-06T14:56:10;1.25;;;0.77;;
35977;SDS011;22056;0.000;0.000;2023-04-06T14:58:36;6.57;;;0.95;;
35977;SDS011;22056;0.000;0.000;2023-04-06T15:01:02;5.18;;;1.08;;
35977;SDS011;22056;0.000;0.000;2023-04-06T15:03:29;4.32;;;1.17;;
35977;SDS011;22056;0.000;0.000;2023-04-06T15:05:56;2.53;;;0.75;;